Latest Weather Observations for Noonamah

IDD60901

Issued at 2:31 pm CST Friday 22 June 2018 (issued every 10 minutes, with the page automatically refreshed every 10 minutes)

About weather observations | Map of Darwin area stations | Latest observations for Darwin area | Other Formats
Station Details ID: 014314 Name: NOONAMAH AIRSTRIP Lat: -12.61 Lon: 131.05 Height: 17.5 m
Data from the previous 72 hours. | See also: Recent months at Noonamah
Date/Time
CST
Temp
°C
App
Temp
°C
Dew
Point
°C
Rel
Hum
%
Delta-T
°C
Wind Press
QNH
hPa
Press
MSL
hPa
Rain since
9am
mm
Dir  Spd
km/h
Gust
km/h
Spd
kts
Gust
kts
22/02:30pm 31.3 28.8 6.4 21 13.4 ENE 9 17 5 9 1013.0 1012.9 0.0
22/02:00pm 31.1 28.7 6.9 22 13.1 E 9 15 5 8 1013.4 1013.3 0.0
22/01:30pm 30.8 27.4 6.0 21 13.2 E 13 24 7 13 1013.9 1013.8 0.0
22/01:00pm 30.0 27.1 6.6 23 12.5 E 11 20 6 11 1014.3 1014.2 0.0
22/12:30pm 29.5 25.4 6.2 23 12.3 ESE 17 30 9 16 1015.0 1014.9 0.0
22/12:00pm 28.8 24.7 6.2 24 11.9 E 17 28 9 15 1015.6 1015.5 0.0
22/11:30am 27.6 23.9 8.0 29 10.6 ESE 17 28 9 15 1016.2 1016.1 0.0
22/11:00am 27.3 23.7 8.2 30 10.3 ESE 17 26 9 14 1016.4 1016.3 0.0
22/10:30am 26.0 22.2 7.6 31 9.8 ESE 17 26 9 14 1016.5 1016.4 0.0
22/10:00am 24.6 21.1 7.3 33 9.1 SE 15 22 8 12 1016.6 1016.5 0.0
22/09:30am 24.0 20.5 7.2 34 8.8 ESE 15 20 8 11 1016.7 1016.6 0.0
22/09:00am 22.3 18.2 4.4 31 8.8 SE 15 20 8 11 1016.6 1016.5 0.0
22/08:30am 20.6 17.6 4.2 34 7.9 SE 9 15 5 8 1016.4 1016.3 0.0
22/08:00am 18.3 15.9 4.1 39 6.7 SE 6 9 3 5 1016.1 1016.0 0.0
22/07:30am 16.3 13.7 4.0 44 5.7 SSE 7 9 4 5 1015.5 1015.4 0.0
22/07:00am 15.3 12.8 3.8 46 5.3 SSE 6 9 3 5 1015.1 1015.0 0.0
22/06:30am 14.9 12.6 4.9 51 4.7 SE 6 6 3 3 1015.0 1014.9 0.0
22/06:00am 14.6 12.4 5.4 54 4.3 SSE 6 9 3 5 1014.8 1014.7 0.0
22/05:30am 13.7 12.0 7.7 67 3.0 SSE 6 6 3 3 1014.7 1014.6 0.0
22/05:00am 13.7 12.2 6.8 63 3.3 SSE 4 6 2 3 1014.7 1014.6 0.0
22/04:30am 14.2 12.8 7.3 63 3.4 SE 4 6 2 3 1014.7 1014.6 0.0
22/04:00am 14.0 13.4 8.8 71 2.6 ESE 2 4 1 2 1014.6 1014.5 0.0
22/03:30am 13.8 12.7 8.4 70 2.7 ESE 4 4 2 2 1014.7 1014.6 0.0
22/03:00am 13.7 13.6 9.6 76 2.1 CALM 0 0 0 0 1014.9 1014.8 0.0
22/02:30am 13.8 13.7 9.6 76 2.2 CALM 0 0 0 0 1014.9 1014.8 0.0
22/02:00am 14.1 14.1 9.7 75 2.3 CALM 0 0 0 0 1015.0 1014.9 0.0
22/01:30am 14.6 14.7 10.2 75 2.3 CALM 0 2 0 1 1015.0 1014.9 0.0
22/01:00am 14.9 15.0 10.1 73 2.5 CALM 0 0 0 0 1015.0 1014.9 0.0
22/12:30am 15.1 15.1 9.9 71 2.7 CALM 0 0 0 0 1015.2 1015.1 0.0
22/12:00am 15.8 15.9 10.1 69 3.0 CALM 0 0 0 0 1015.3 1015.2 0.0
 
Date/Time
CST
Temp
°C
App
Temp
°C
Dew
Point
°C
Rel
Hum
%
Delta-T
°C
Wind Press
QNH
hPa
Press
MSL
hPa
Rain since
9am
mm
Dir  Spd
km/h
Gust
km/h
Spd
kts
Gust
kts
21/11:30pm 16.7 16.8 10.3 66 3.4 CALM 0 0 0 0 1015.5 1015.4 0.0
21/11:00pm 17.4 17.5 10.3 63 3.8 CALM 0 0 0 0 1015.7 1015.6 0.0
21/10:30pm 18.3 18.0 10.2 59 4.3 S 2 2 1 1 1015.8 1015.7 0.0
21/10:00pm 18.9 18.6 10.2 57 4.7 W 2 4 1 2 1015.8 1015.7 0.0
21/09:30pm 19.3 19.3 9.8 54 5.1 CALM 0 0 0 0 1015.7 1015.6 0.0
21/09:00pm 19.3 17.7 8.0 48 5.8 W 6 7 3 4 1015.5 1015.4 0.0
21/08:30pm 19.8 18.9 7.9 46 6.1 WNW 2 4 1 2 1015.4 1015.3 0.0
21/08:00pm 20.8 20.0 8.1 44 6.6 N 2 6 1 3 1014.9 1014.8 0.0
21/07:30pm 23.2 22.2 5.6 32 8.9 CALM 0 0 0 0 1014.3 1014.2 0.0
21/07:00pm 25.6 23.9 4.1 25 10.7 SSE 2 4 1 2 1014.0 1013.9 0.0
21/06:30pm 28.6 25.9 2.7 19 12.8 S 6 7 3 4 1013.5 1013.4 0.0
21/06:00pm 30.5 27.7 1.9 16 14.2 SSE 6 9 3 5 1012.9 1012.8 0.0
21/05:30pm 31.8 28.6 1.0 14 15.2 SE 7 11 4 6 1012.7 1012.6 0.0
21/05:00pm 32.5 28.9 0.6 13 15.7 SSE 9 13 5 7 1012.6 1012.5 0.0
21/04:30pm 32.6 29.4 -0.5 12 16.0 SE 6 9 3 5 1012.3 1012.2 0.0
21/04:00pm 32.8 28.5 -1.5 11 16.3 ESE 11 20 6 11 1012.3 1012.2 0.0
21/03:30pm 33.0 28.7 -1.4 11 16.4 SE 11 17 6 9 1012.3 1012.2 0.0
21/03:00pm 32.4 28.8 0.5 13 15.6 ENE 9 17 5 9 1012.5 1012.4 0.0
21/02:30pm 31.9 28.5 2.1 15 14.9 E 9 19 5 10 1012.8 1012.7 0.0
21/02:00pm 32.1 28.0 2.2 15 15.0 E 13 22 7 12 1013.2 1013.1 0.0
21/01:30pm 31.9 27.8 2.1 15 14.9 ESE 13 20 7 11 1013.6 1013.5 0.0
21/01:00pm 31.1 26.5 1.4 15 14.6 E 15 24 8 13 1014.0 1013.9 0.0
21/12:30pm 30.1 26.3 4.0 19 13.4 ESE 13 20 7 11 1014.6 1014.5 0.0
21/12:00pm 29.4 25.6 4.1 20 12.9 E 13 20 7 11 1015.1 1015.0 0.0
21/11:30am 29.1 24.8 3.1 19 13.0 ESE 15 24 8 13 1015.4 1015.3 0.0
21/11:00am 28.6 24.3 3.5 20 12.6 E 15 22 8 12 1015.9 1015.8 0.0
21/10:30am 27.3 23.7 5.0 24 11.4 SE 13 17 7 9 1016.4 1016.3 0.0
21/10:00am 26.9 24.1 6.9 28 10.6 ESE 11 19 6 10 1016.6 1016.5 0.0
21/09:30am 25.1 22.3 6.8 31 9.5 SE 11 15 6 8 1016.8 1016.7 0.0
21/09:00am 23.5 21.2 7.6 36 8.3 SE 9 13 5 7 1016.6 1016.5 0.0
21/08:30am 21.3 20.0 9.2 46 6.4 SE 6 9 3 5 1016.4 1016.3 0.0
21/08:00am 18.8 18.0 9.8 56 4.8 SE 4 6 2 3 1016.1 1016.0 0.0
21/07:30am 15.8 15.4 11.2 74 2.5 SE 4 6 2 3 1015.5 1015.4 0.0
21/07:00am 15.3 15.5 11.7 79 1.9 SE 2 4 1 2 1015.3 1015.2 0.0
21/06:30am 15.6 15.0 12.4 81 1.8 SSE 7 9 4 5 1015.0 1014.9 0.0
21/06:00am 15.7 16.2 13.9 89 1.0 SSE 4 4 2 2 1014.9 1014.8 0.0
21/05:30am 16.0 17.1 14.5 91 0.9 SE 2 4 1 2 1014.6 1014.5 0.0
21/05:00am 15.8 17.1 14.0 89 1.0 CALM 0 0 0 0 1014.3 1014.2 0.0
21/04:30am 15.9 17.2 14.1 89 1.0 CALM 0 0 0 0 1014.4 1014.3 0.0
21/04:00am 16.7 18.3 14.9 89 1.0 CALM 0 0 0 0 1014.2 1014.1 0.0
21/03:30am 16.9 17.7 14.9 88 1.2 SSE 4 4 2 2 1014.1 1014.0 0.0
21/03:00am 17.3 18.8 15.6 90 1.0 SSE 2 6 1 3 1014.3 1014.2 0.0
21/02:30am 17.2 19.0 15.4 89 1.1 CALM 0 0 0 0 1014.6 1014.5 0.0
21/02:00am 17.5 19.3 15.5 88 1.2 CALM 0 0 0 0 1014.6 1014.5 0.0
21/01:30am 18.0 19.9 15.8 87 1.3 CALM 0 0 0 0 1014.7 1014.6 0.0
21/01:00am 18.4 20.6 16.4 88 1.2 CALM 0 0 0 0 1014.8 1014.7 0.0
21/12:30am 18.9 21.1 16.5 86 1.4 CALM 0 0 0 0 1014.7 1014.6 0.0
21/12:00am 19.4 21.6 16.6 84 1.7 CALM 0 0 0 0 1014.7 1014.6 0.0
 
Date/Time
CST
Temp
°C
App
Temp
°C
Dew
Point
°C
Rel
Hum
%
Delta-T
°C
Wind Press
QNH
hPa
Press
MSL
hPa
Rain since
9am
mm
Dir  Spd
km/h
Gust
km/h
Spd
kts
Gust
kts
20/11:30pm 19.9 22.2 16.7 82 1.9 CALM 0 0 0 0 1014.8 1014.7 0.0
20/11:00pm 20.2 22.8 17.4 84 1.7 CALM 0 0 0 0 1015.0 1014.9 0.0
20/10:30pm 20.9 23.3 17.1 79 2.3 CALM 0 0 0 0 1014.9 1014.8 0.0
20/10:00pm 21.7 24.3 17.5 77 2.6 CALM 0 0 0 0 1014.7 1014.6 0.0
20/09:30pm 22.9 25.3 18.0 74 3.1 SSE 2 2 1 1 1014.6 1014.5 0.0
20/09:00pm 23.6 26.2 18.3 72 3.3 S 2 6 1 3 1014.5 1014.4 0.0
20/08:30pm 24.5 26.9 18.9 71 3.6 S 4 6 2 3 1014.2 1014.1 0.0
20/08:00pm 25.5 28.2 19.4 69 3.9 SSW 4 6 2 3 1013.6 1013.5 0.0
20/07:30pm 26.7 29.5 18.0 59 5.5 CALM 0 4 0 2 1013.3 1013.2 0.0
20/07:00pm 27.9 29.8 17.7 53 6.5 WNW 4 7 2 4 1013.1 1013.0 0.0
20/06:30pm 29.4 30.7 17.2 47 7.7 WNW 6 7 3 4 1012.8 1012.7 0.0
20/06:00pm 31.5 32.4 15.0 36 10.2 NNE 4 7 2 4 1012.3 1012.2 0.0
20/05:30pm 32.7 32.4 13.4 31 11.6 NE 7 11 4 6 1012.0 1011.9 0.0
20/05:00pm 33.7 33.4 12.7 28 12.6 E 6 11 3 6 1011.9 1011.8 0.0
20/04:30pm 33.6 32.1 12.0 27 12.8 ENE 11 20 6 11 1011.8 1011.7 0.0
20/04:00pm 34.0 32.9 11.8 26 13.1 E 9 22 5 12 1011.9 1011.8 0.0
20/03:30pm 34.0 33.0 12.4 27 12.9 NE 9 15 5 8 1012.1 1012.0 0.0
20/03:00pm 33.8 33.2 12.2 27 12.9 ESE 7 17 4 9 1012.4 1012.3 0.0
20/02:30pm 33.5 31.9 11.4 26 13.0 E 11 24 6 13 1012.7 1012.6 0.0
20/02:00pm 33.5 31.9 11.4 26 13.0 ENE 11 20 6 11 1013.1 1013.0 0.0
20/01:30pm 32.9 30.7 10.9 26 12.8 ESE 13 22 7 12 1013.6 1013.5 0.0
20/01:00pm 32.4 29.7 10.4 26 12.7 E 15 24 8 13 1014.1 1014.0 0.0
20/12:30pm 32.7 30.2 8.2 22 13.6 E 11 17 6 9 1014.6 1014.5 0.0
20/12:00pm 32.0 29.4 7.6 22 13.4 ESE 11 19 6 10 1015.0 1014.9 0.0
20/11:30am 31.2 27.9 6.3 21 13.3 SE 13 20 7 11 1015.3 1015.2 0.0
20/11:00am 29.9 26.3 5.2 21 12.9 ESE 13 17 7 9 1015.7 1015.6 0.0
20/10:30am 29.1 24.5 3.9 20 12.8 ESE 17 26 9 14 1015.9 1015.8 0.0
20/10:00am 28.3 24.9 5.8 24 11.8 ESE 13 19 7 10 1016.2 1016.1 0.0
20/09:30am 27.2 24.2 6.0 26 11.0 ESE 11 19 6 10 1016.4 1016.3 0.0
20/09:00am 25.5 22.7 7.1 31 9.7 ESE 11 17 6 9 1016.3 1016.2 0.0
20/08:30am 23.8 22.3 9.0 39 8.0 ESE 7 11 4 6 1016.1 1016.0 0.0
20/08:00am 21.8 21.2 10.3 48 6.3 SE 4 7 2 4 1015.9 1015.8 0.0
20/07:30am 18.0 18.1 12.7 71 3.0 SE 4 4 2 2 1015.5 1015.4 0.0
20/07:00am 17.5 17.7 13.0 75 2.5 SE 4 4 2 2 1015.3 1015.2 0.0
20/06:30am 17.7 18.6 14.0 79 2.1 ESE 2 2 1 1 1014.9 1014.8 0.0
20/06:00am 17.7 18.9 13.8 78 2.2 CALM 0 0 0 0 1014.9 1014.8 0.0
20/05:30am 17.8 19.3 14.7 82 1.8 CALM 0 0 0 0 1015.1 1015.0 0.0
20/05:00am 17.9 19.5 14.8 82 1.8 CALM 0 0 0 0 1014.9 1014.8 0.0
20/04:30am 18.1 19.9 15.4 84 1.6 CALM 0 0 0 0 1014.8 1014.7 0.0
20/04:00am 18.3 20.1 15.6 84 1.6 CALM 0 0 0 0 1015.0 1014.9 0.0
20/03:30am 19.1 21.1 16.0 82 1.8 CALM 0 0 0 0 1015.1 1015.0 0.0
20/03:00am 19.3 21.4 16.3 83 1.8 CALM 0 0 0 0 1015.2 1015.1 0.0
20/02:30am 19.7 22.0 16.7 83 1.8 CALM 0 0 0 0 1015.3 1015.2 0.0
20/02:00am 20.0 22.3 16.8 82 1.9 CALM 0 0 0 0 1015.5 1015.4 0.0
20/01:30am 21.0 23.4 17.0 78 2.4 CALM 0 0 0 0 1015.8 1015.7 0.0
20/01:00am 21.7 24.2 17.3 76 2.7 CALM 0 0 0 0 1015.9 1015.8 0.0
20/12:30am 23.0 25.7 17.7 72 3.3 CALM 0 0 0 0 1016.0 1015.9 0.0
20/12:00am 23.9 26.8 18.1 70 3.6 CALM 0 2 0 1 1016.1 1016.0 0.0
 
Date/Time
CST
Temp
°C
App
Temp
°C
Dew
Point
°C
Rel
Hum
%
Delta-T
°C
Wind Press
QNH
hPa
Press
MSL
hPa
Rain since
9am
mm
Dir  Spd
km/h
Gust
km/h
Spd
kts
Gust
kts
19/11:30pm 24.8 27.7 18.3 67 4.1 CALM 0 0 0 0 1016.0 1015.9 0.0
19/11:00pm 24.8 26.6 18.3 67 4.1 SW 6 9 3 5 1015.9 1015.8 0.0
19/10:30pm 24.3 26.1 18.2 68 3.8 SW 6 7 3 4 1016.0 1015.9 0.0
19/10:00pm 24.3 26.7 18.7 71 3.6 SW 4 7 2 4 1016.0 1015.9 0.0
19/09:30pm 24.6 26.6 17.8 66 4.3 WSW 4 6 2 3 1015.7 1015.6 0.0
19/09:00pm 24.6 25.7 17.1 63 4.6 SSW 7 11 4 6 1015.5 1015.4 0.0
19/08:30pm 25.2 27.4 16.6 59 5.3 CALM 0 0 0 0 1015.0 1014.9 0.0
19/08:00pm 26.0 28.3 16.8 57 5.7 CALM 0 2 0 1 1014.6 1014.5 0.0
19/07:30pm 26.8 28.2 16.4 53 6.4 NW 4 7 2 4 1014.2 1014.1 0.0
19/07:00pm 28.1 28.8 16.1 48 7.4 NW 7 13 4 7 1013.9 1013.8 0.0
19/06:30pm 30.3 32.3 16.0 42 8.9 CALM 0 0 0 0 1013.5 1013.4 0.0
19/06:00pm 31.5 32.4 15.0 36 10.2 NE 4 6 2 3 1013.1 1013.0 0.0
19/05:30pm 32.2 32.4 14.3 33 10.9 ENE 6 9 3 5 1012.7 1012.6 0.0
19/05:00pm 32.3 31.6 14.4 33 10.9 ENE 11 17 6 9 1012.6 1012.5 0.0
19/04:30pm 32.7 31.8 13.8 31 11.5 ENE 11 20 6 11 1012.5 1012.4 0.0
19/04:00pm 32.7 31.9 12.9 30 11.9 E 9 20 5 11 1012.4 1012.3 0.0
19/03:30pm 33.1 31.6 13.2 30 12.0 ESE 13 22 7 12 1012.4 1012.3 0.0
19/03:00pm 32.6 31.6 12.3 29 12.0 ESE 9 17 5 9 1012.6 1012.5 0.0

Latest Capital City Observations: Canberra | Sydney | Melbourne | Brisbane | Adelaide | Perth | Hobart | Darwin

Other Formats:

Comma delimited format used in spreadsheet applications
http://www.bom.gov.au/fwo/IDD60901/IDD60901.94105.axf

JavaScript Object Notation format (JSON) in row-major order
http://www.bom.gov.au/fwo/IDD60901/IDD60901.94105.json